26. September 2022

Uhrzeit Code Wetter Temp. Sichtweite Wolkendecke Wind METAR/SPECI
13:25
M
15 °C 6 km 1.700 ft 270° 270° 14 kt METAR EHHW 261125Z AUTO 27014KT 240V300 6000 -RA FEW001/// SCT014/// BKN017/// 15/11 Q0993
12:55
M
14 °C 10 km+ 1.200 ft 210° 210° 11 kt METAR EHHW 261055Z AUTO 21011KT 9999 FEW005/// SCT010/// BKN012/// 14/12 Q0993
12:25
I
14 °C 10 km+ 800 ft 230° 230° 9 kt METAR EHHW 261025Z AUTO 23009KT 190V290 9999 FEW002/// SCT006/// BKN008/// 14/12 Q0993
11:55
I
14 °C 8 km 700 ft 200° 200° 29 - 41 kt METAR EHHW 260955Z AUTO 20029G41KT 8000 -RA FEW002/// SCT006/// BKN007/// 14/13 Q0994 RERA REDZ
11:25
I
13 °C 8 km 800 ft 190° 190° 31 kt METAR EHHW 260925Z AUTO 19031KT 8000 -RA FEW005/// SCT006/// BKN008/// 13/12 Q0994
10:55
M
13 °C 10 km+ 1.500 ft 190° 190° 32 kt METAR EHHW 260855Z AUTO 19032KT 9999 FEW005/// SCT008/// BKN015/// 13/12 Q0995 REDZ
10:25
M
13 °C 10 km+ 1.700 ft 210° 210° 30 kt METAR EHHW 260825Z AUTO 21030KT 9999 DZ FEW007/// SCT010/// BKN017/// 13/11 Q0995
09:55
V
14 °C 10 km+ 3.200 ft 230° 230° 31 kt METAR EHHW 260755Z AUTO 23031KT 9999 -RA FEW007/// SCT020/// BKN032/// 14/11 Q0996
09:25
V
15 °C 10 km+ 4.100 ft 220° 220° 32 kt METAR EHHW 260725Z AUTO 22032KT 9999 -RA FEW001/// SCT027/// BKN041/// 15/10 Q0996 RERA REDZ
08:55
V
15 °C 10 km+ 4.100 ft 220° 220° 30 kt METAR EHHW 260655Z AUTO 22030KT 9999 DZ FEW020/// SCT029/// BKN041/// 15/10 Q0996
08:25
M
15 °C 10 km+ 2.800 ft 220° 220° 33 kt METAR EHHW 260625Z AUTO 22033KT 9999 SCT022/// BKN028/// BKN037/// 15/10 Q0997
07:55
M
15 °C 10 km+ 2.900 ft 220° 220° 33 kt METAR EHHW 260555Z AUTO 22033KT 9999 FEW021/// SCT024/// BKN029/// 15/10 Q0997
07:25
V
15 °C 10 km+ 3.700 ft 220° 220° 32 kt METAR EHHW 260525Z AUTO 22032KT 9999 FEW021/// SCT025/// BKN037/// 15/10 Q0998 REDZ
06:55
V
15 °C 10 km+ 3.800 ft 230° 230° 30 kt METAR EHHW 260455Z AUTO 23030KT 9999 FEW025/// BKN038/// OVC042/// 15/10 Q0998
06:25
V
15 °C 10 km+ 3.800 ft 230° 230° 32 kt METAR EHHW 260425Z AUTO 23032KT 9999 FEW027/// BKN038/// OVC043/// 15/09 Q0999
05:55
V
15 °C 10 km+ 4.200 ft 220° 220° 33 kt METAR EHHW 260355Z AUTO 22033KT 9999 FEW025/// BKN042/// 15/09 Q1000 REDZ
05:25
V
15 °C 10 km+ - 220° 220° 31 kt METAR EHHW 260325Z AUTO 22031KT 9999 -RA FEW023/// SCT043/// 15/09 Q1000 RERA REDZ
04:55
M
15 °C 10 km+ 2.500 ft 220° 220° 31 kt METAR EHHW 260255Z AUTO 22031KT 9999 -RA FEW020/// BKN025/// BKN035/// 15/09 Q1001 RERA REDZ
04:25
V
15 °C 10 km+ 4.000 ft 210° 210° 32 kt METAR EHHW 260225Z AUTO 21032KT 9999 -RADZ FEW020/// SCT025/// BKN040/// 15/10 Q1001
03:55
V
14 °C 10 km+ 4.200 ft 220° 220° 29 kt METAR EHHW 260155Z AUTO 22029KT 9999 -RA FEW014/// BKN042/// BKN048/// 14/09 Q1002
03:25
V
14 °C 10 km+ - 230° 230° 24 kt METAR EHHW 260125Z AUTO 23024KT 9999 -RA FEW015/// SCT041/// 14/10 Q1003
02:55
V
14 °C 10 km+ - 240° 240° 24 kt METAR EHHW 260055Z AUTO 24024KT 9999 -RA FEW013/// SCT041/// 14/09 Q1003
02:25
M
14 °C 7 km 4.700 ft 240° 240° 20 kt METAR EHHW 260025Z AUTO 24020KT 210V270 7000 SHRA FEW013/// SCT026/// BKN047/// 14/11 Q1004
01:55
V
14 °C 8 km 3.300 ft 220° 220° 23 kt METAR EHHW 252355Z AUTO 22023KT 8000 -SHRA FEW017/// SCT028/// BKN033/// 14/10 Q1004 REDZ
01:25
V
15 °C 10 km+ 4.800 ft 230° 230° 22 kt METAR EHHW 252325Z AUTO 23022KT 9999 -DZ FEW026/// SCT029/// BKN048/// 15/08 Q1005
00:55
V
15 °C 10 km+ - 230° 230° 21 kt METAR EHHW 252255Z AUTO 23021KT 9999 FEW026/// SCT030/// 15/09 Q1006
00:25
V
15 °C 10 km+ - 250° 250° 20 kt METAR EHHW 252225Z AUTO 25020KT 190V280 9999 FEW029/// 15/08 Q1006

25. September 2022

Uhrzeit Code Wetter Temp. Sichtweite Wolkendecke Wind METAR/SPECI
23:55
V
15 °C 10 km+ 4.100 ft 260° 260° 24 kt METAR EHHW 252155Z AUTO 26024KT 9999 FEW028/// SCT033/// BKN041/// 15/07 Q1007
23:25
V
15 °C 10 km+ 3.700 ft 260° 260° 21 kt METAR EHHW 252125Z AUTO 26021KT 9999 FEW023/// SCT030/// BKN037/// 15/08 Q1007 REDZ
22:55
V
14 °C 10 km+ 3.700 ft 260° 260° 22 kt METAR EHHW 252055Z AUTO 26022KT 9999 -RADZ FEW022/// SCT031/// BKN037/// 14/09 Q1008
22:25
V
15 °C 10 km+ 3.700 ft 240° 240° 14 kt METAR EHHW 252025Z AUTO 24014KT 180V290 9999 SCT031/// BKN037/// BKN043/// 15/07 Q1008
21:55
V
15 °C 10 km+ - 240° 240° 12 kt METAR EHHW 251955Z AUTO 24012KT 180V290 9999 FEW028/// SCT031/// 15/06 Q1009
21:25
V
14 °C 10 km+ - 250° 250° 13 kt METAR EHHW 251925Z AUTO 25013KT 190V280 9999 FEW026/// SCT031/// 14/07 Q1009
20:55
V
14 °C 10 km+ - 240° 240° 10 kt METAR EHHW 251855Z AUTO 24010KT 190V280 9999 FEW026/// SCT039/// 14/08 Q1009
20:25
V
14 °C 10 km+ - 260° 260° 11 kt METAR EHHW 251825Z AUTO 26011KT 210V290 9999 FEW029/// SCT046/// 14/07 Q1010
19:55
V
14 °C 10 km+ - 260° 260° 11 kt METAR EHHW 251755Z AUTO 26011KT 220V290 9999 FEW029/// 14/06 Q1010
19:25
V
14 °C 10 km+ 3.900 ft 270° 270° 11 kt METAR EHHW 251725Z AUTO 27011KT 240V300 9999 FEW026/// SCT030/// BKN039/// 14/07 Q1011
18:55
V
14 °C 10 km+ - 280° 280° 10 kt METAR EHHW 251655Z AUTO 28010KT 240V300 9999 FEW026/// SCT037/// 14/07 Q1011
18:25
V
14 °C 10 km+ - 280° 280° 9 kt METAR EHHW 251625Z AUTO 28009KT 250V320 9999 FEW027/// SCT044/// 14/07 Q1011
17:55
V
14 °C 10 km+ - 280° 280° 10 kt METAR EHHW 251555Z AUTO 28010KT 9999 FEW026/// SCT033/// 14/07 Q1012
17:25
V
14 °C 10 km+ - 290° 290° 10 kt METAR EHHW 251525Z AUTO 29010KT 260V320 9999 FEW027/// 14/07 Q1012
16:55
V
15 °C 10 km+ - 290° 290° 8 kt METAR EHHW 251455Z AUTO 29008KT 270V330 9999 FEW030/// 15/06 Q1012
16:25
V
15 °C 10 km+ - 290° 290° 8 kt METAR EHHW 251425Z AUTO 29008KT 9999 FEW030/// 15/06 Q1012
15:55
V
15 °C 10 km+ - 300° 300° 6 kt METAR EHHW 251355Z AUTO 30006KT 270V350 9999 FEW031/// 15/06 Q1013
15:25
V
15 °C 10 km+ - 310° 310° 7 kt METAR EHHW 251325Z AUTO 31007KT 280V350 9999 FEW031/// 15/06 Q1013
14:55
V
15 °C 10 km+ - 320° 320° 7 kt METAR EHHW 251255Z AUTO 32007KT 280V340 9999 FEW033/// 15/06 Q1013
14:25
V
15 °C 10 km+ - 320° 320° 7 kt METAR EHHW 251225Z AUTO 32007KT 280V340 9999 FEW028/// 15/05 Q1013
13:55
V
15 °C 10 km+ - 320° 320° 9 kt METAR EHHW 251155Z AUTO 32009KT 290V010 9999 FEW028/// 15/06 Q1014
13:25
V
15 °C 10 km+ - 340° 340° 10 kt METAR EHHW 251125Z AUTO 34010KT 9999 FEW031/// 15/07 Q1014
12:55
V
15 °C 10 km+ - 340° 340° 10 kt METAR EHHW 251055Z AUTO 34010KT 310V010 9999 FEW026/// 15/06 Q1014
12:25
V
14 °C 10 km+ 3.200 ft 360° 360° 11 kt METAR EHHW 251025Z AUTO 36011KT 9999 FEW023/// SCT029/// BKN032/// 14/07 Q1014
11:55
V
15 °C 10 km+ - 350° 350° 9 kt METAR EHHW 250955Z AUTO 35009KT 9999 SCT029/// SCT033/// 15/07 Q1014
11:25
V
15 °C 10 km+ - 360° 360° 10 kt METAR EHHW 250925Z AUTO 36010KT 320V030 9999 FEW028/// 15/06 Q1015
10:55
V
15 °C 10 km+ - 350° 350° 10 kt METAR EHHW 250855Z AUTO 35010KT 330V030 9999 FEW027/// 15/07 Q1015
10:25
V
14 °C 10 km+ - 350° 350° 12 kt METAR EHHW 250825Z AUTO 35012KT 9999 FEW024/// 14/07 Q1015
09:55
V
15 °C 10 km+ 4.400 ft 010° 010° 11 kt METAR EHHW 250755Z AUTO 01011KT 340V040 9999 FEW024/// SCT037/// BKN044/// 15/07 Q1015
09:25
V
14 °C 10 km+ 4.500 ft 360° 360° 10 kt METAR EHHW 250725Z AUTO 36010KT 330V050 9999 SCT024/// SCT031/// BKN045/// 14/07 Q1015
08:55
V
14 °C 10 km+ 4.900 ft 340° 340° 11 kt METAR EHHW 250655Z AUTO 34011KT 290V020 9999 FEW024/// SCT039/// BKN049/// 14/09 Q1014
08:25
V
14 °C 10 km+ 4.600 ft 340° 340° 9 kt METAR EHHW 250625Z AUTO 34009KT 9999 FEW031/// SCT041/// BKN046/// 14/09 Q1014
07:55
M
13 °C 10 km+ 2.400 ft 350° 350° 17 kt METAR EHHW 250555Z AUTO 35017KT 9999 -RA SCT020/// BKN024/// BKN046/// 13/09 Q1014
07:25
V
13 °C 10 km+ - 030° 030° 12 kt METAR EHHW 250525Z AUTO 03012KT 340V060 9999 SCT020/// SCT026/// 13/08 Q1014
06:55
V
13 °C 10 km+ 4.400 ft 030° 030° 7 kt METAR EHHW 250455Z AUTO 03007KT 320V070 9999 FEW019/// SCT024/// BKN044/// 13/09 Q1014 REDZ
06:25
V
13 °C 10 km+ - 010° 010° 17 kt METAR EHHW 250425Z AUTO 01017KT 9999 -DZRA FEW024/// SCT038/// 13/08 Q1015
05:55
V
14 °C 10 km+ - 360° 360° 12 kt METAR EHHW 250355Z AUTO 36012KT 340V040 9999 FEW025/// 14/07 Q1015
05:25
V
14 °C 10 km+ 3.600 ft 010° 010° 13 kt METAR EHHW 250325Z AUTO 01013KT 330V040 9999 SCT025/// SCT029/// BKN036/// 14/08 Q1015
04:55
V
14 °C 10 km+ 3.000 ft 010° 010° 14 kt METAR EHHW 250255Z AUTO 01014KT 340V040 9999 SCT025/// BKN030/// BKN042/// 14/08 Q1015
04:25
V
14 °C 10 km+ 3.200 ft 360° 360° 14 kt METAR EHHW 250225Z AUTO 36014KT 340V050 9999 FEW023/// SCT026/// BKN032/// 14/08 Q1015
03:55
V
14 °C 10 km+ 3.000 ft 010° 010° 15 kt METAR EHHW 250155Z AUTO 01015KT 340V050 9999 FEW020/// SCT024/// BKN030/// 14/08 Q1015
03:25
V
14 °C 10 km+ - 360° 360° 13 kt METAR EHHW 250125Z AUTO 36013KT 330V030 9999 FEW021/// SCT026/// 14/09 Q1015
02:55
V
14 °C 10 km+ - 010° 010° 14 kt METAR EHHW 250055Z AUTO 01014KT 340V040 9999 SCT022/// SCT026/// 14/08 Q1015
02:25
V
14 °C 10 km+ - 010° 010° 15 kt METAR EHHW 250025Z AUTO 01015KT 340V040 9999 SCT024/// SCT029/// 14/08 Q1015
01:55
V
14 °C 10 km+ - 010° 010° 15 kt METAR EHHW 242355Z AUTO 01015KT 350V050 9999 FEW024/// 14/08 Q1015
01:25
V
14 °C 10 km+ - 010° 010° 16 kt METAR EHHW 242325Z AUTO 01016KT 340V040 9999 FEW022/// 14/08 Q1015
00:55
V
14 °C 10 km+ - 010° 010° 16 kt METAR EHHW 242255Z AUTO 01016KT 340V040 9999 FEW022/// SCT025/// 14/09 Q1015
00:25
V
14 °C 10 km+ 3.300 ft 010° 010° 16 kt METAR EHHW 242225Z AUTO 01016KT 9999 FEW022/// SCT025/// BKN033/// 14/09 Q1015

24. September 2022

Uhrzeit Code Wetter Temp. Sichtweite Wolkendecke Wind METAR/SPECI
23:55
V
14 °C 10 km+ - 010° 010° 16 kt METAR EHHW 242155Z AUTO 01016KT 340V040 9999 FEW022/// SCT031/// 14/08 Q1015
23:25
V
14 °C 10 km+ - 010° 010° 16 kt METAR EHHW 242125Z AUTO 01016KT 340V050 9999 FEW022/// SCT029/// 14/08 Q1015
22:55
V
14 °C 10 km+ - 010° 010° 16 kt METAR EHHW 242055Z AUTO 01016KT 340V040 9999 FEW023/// SCT029/// 14/09 Q1015
22:25
V
14 °C 10 km+ - 010° 010° 17 kt METAR EHHW 242025Z AUTO 01017KT 9999 FEW023/// 14/08 Q1015
21:55
V
14 °C 10 km+ - 010° 010° 17 kt METAR EHHW 241955Z AUTO 01017KT 340V040 9999 FEW023/// SCT043/// 14/09 Q1015
21:25
V
15 °C 10 km+ - 010° 010° 17 kt METAR EHHW 241925Z AUTO 01017KT 340V040 9999 FEW022/// SCT038/// 15/09 Q1015
20:55
V
15 °C 10 km+ - 360° 360° 15 kt METAR EHHW 241855Z AUTO 36015KT 9999 SCT021/// SCT029/// 15/10 Q1015
20:25
M
15 °C 10 km+ 2.800 ft 010° 010° 16 kt METAR EHHW 241825Z AUTO 01016KT 9999 SCT021/// SCT024/// BKN028/// 15/08 Q1015
19:55
V
15 °C 10 km+ - 010° 010° 16 kt METAR EHHW 241755Z AUTO 01016KT 340V070 9999 FEW021/// SCT027/// 15/09 Q1015
19:25
V
15 °C 10 km+ - 010° 010° 17 kt METAR EHHW 241725Z AUTO 01017KT 9999 FEW021/// 15/08 Q1015
18:55
M
15 °C 10 km+ 2.600 ft 010° 010° 15 kt METAR EHHW 241655Z AUTO 01015KT 340V060 9999 SCT022/// BKN026/// BKN037/// 15/08 Q1014
18:25
V
15 °C 10 km+ - 010° 010° 15 kt METAR EHHW 241625Z AUTO 01015KT 340V040 9999 FEW022/// SCT026/// 15/09 Q1014
17:55
V
15 °C 10 km+ - 020° 020° 14 kt METAR EHHW 241555Z AUTO 02014KT 350V050 9999 FEW022/// SCT025/// 15/09 Q1014
17:25
V
15 °C 10 km+ - 010° 010° 17 kt METAR EHHW 241525Z AUTO 01017KT 350V050 9999 FEW022/// SCT025/// 15/09 Q1014
16:55
V
15 °C 10 km+ - 020° 020° 13 kt METAR EHHW 241455Z AUTO 02013KT 350V050 9999 FEW023/// 15/09 Q1014
16:25
V
15 °C 10 km+ - 010° 010° 16 kt METAR EHHW 241425Z AUTO 01016KT 9999 FEW022/// 15/09 Q1014
15:55
V
15 °C 10 km+ - 010° 010° 15 kt METAR EHHW 241355Z AUTO 01015KT 340V050 9999 FEW021/// 15/08 Q1014
15:25
V
15 °C 10 km+ - 020° 020° 15 kt METAR EHHW 241325Z AUTO 02015KT 350V050 9999 FEW021/// 15/09 Q1014
14:55
V
15 °C 10 km+ - 020° 020° 15 kt METAR EHHW 241255Z AUTO 02015KT 330V060 9999 FEW021/// SCT026/// 15/09 Q1014
14:25
M
15 °C 10 km+ 2.700 ft 010° 010° 17 kt METAR EHHW 241225Z AUTO 01017KT 340V050 9999 SCT019/// SCT023/// BKN027/// 15/09 Q1014
13:55
V
15 °C 10 km+ - 030° 030° 15 kt METAR EHHW 241155Z AUTO 03015KT 350V050 9999 FEW019/// SCT022/// 15/09 Q1014
Ältere Daten

Wir und Dritte verfolgen dein Internetverhalten auf unserer Website mit Cookies. Wenn du fortfährst, gehen wir davon aus, dass du mit unserer Cookie-Richtlinie einverstanden bist. Mehr erfahren